sensor_id;sensor_type;location;lat;lon;timestamp;temperature;humidity
14378;DHT22;7272;53.668;9.578;2023-11-22T00:00:34;4.80;99.90
14378;DHT22;7272;53.668;9.578;2023-11-22T00:03:36;4.80;99.90
14378;DHT22;7272;53.668;9.578;2023-11-22T00:06:37;4.70;99.90
14378;DHT22;7272;53.668;9.578;2023-11-22T00:09:38;4.70;99.90
14378;DHT22;7272;53.668;9.578;2023-11-22T00:12:40;4.60;99.90
14378;DHT22;7272;53.668;9.578;2023-11-22T00:15:41;4.50;99.90
14378;DHT22;7272;53.668;9.578;2023-11-22T00:18:42;4.50;99.90
14378;DHT22;7272;53.668;9.578;2023-11-22T00:21:43;4.50;99.90
14378;DHT22;7272;53.668;9.578;2023-11-22T00:24:45;4.50;99.90
14378;DHT22;7272;53.668;9.578;2023-11-22T00:27:51;4.50;99.90
14378;DHT22;7272;53.668;9.578;2023-11-22T00:30:52;4.40;99.90
14378;DHT22;7272;53.668;9.578;2023-11-22T00:33:54;4.40;99.90
14378;DHT22;7272;53.668;9.578;2023-11-22T00:36:57;4.40;99.90
14378;DHT22;7272;53.668;9.578;2023-11-22T00:39:58;4.40;99.90
14378;DHT22;7272;53.668;9.578;2023-11-22T00:43:02;4.40;99.90
14378;DHT22;7272;53.668;9.578;2023-11-22T00:46:04;4.40;99.90
14378;DHT22;7272;53.668;9.578;2023-11-22T00:49:05;4.20;99.90
14378;DHT22;7272;53.668;9.578;2023-11-22T00:52:08;4.10;99.90
14378;DHT22;7272;53.668;9.578;2023-11-22T00:55:09;4.00;99.90
14378;DHT22;7272;53.668;9.578;2023-11-22T00:58:11;4.00;99.90
14378;DHT22;7272;53.668;9.578;2023-11-22T01:01:12;4.00;99.90
14378;DHT22;7272;53.668;9.578;2023-11-22T01:04:13;3.90;99.90
14378;DHT22;7272;53.668;9.578;2023-11-22T01:07:15;3.90;99.90
14378;DHT22;7272;53.668;9.578;2023-11-22T01:10:17;3.80;99.90
14378;DHT22;7272;53.668;9.578;2023-11-22T01:13:19;3.80;99.90
14378;DHT22;7272;53.668;9.578;2023-11-22T01:16:22;3.80;99.90
14378;DHT22;7272;53.668;9.578;2023-11-22T01:19:24;3.80;99.90
14378;DHT22;7272;53.668;9.578;2023-11-22T01:22:26;3.70;99.90
14378;DHT22;7272;53.668;9.578;2023-11-22T01:25:28;3.70;99.90
14378;DHT22;7272;53.668;9.578;2023-11-22T01:28:30;3.70;99.90
14378;DHT22;7272;53.668;9.578;2023-11-22T01:31:35;3.60;99.90
14378;DHT22;7272;53.668;9.578;2023-11-22T01:34:36;3.60;99.90
14378;DHT22;7272;53.668;9.578;2023-11-22T01:37:37;3.60;99.90
14378;DHT22;7272;53.668;9.578;2023-11-22T01:40:43;3.60;99.90
14378;DHT22;7272;53.668;9.578;2023-11-22T01:43:45;3.60;99.90
14378;DHT22;7272;53.668;9.578;2023-11-22T01:46:47;3.60;99.90
14378;DHT22;7272;53.668;9.578;2023-11-22T01:49:48;3.60;99.90
14378;DHT22;7272;53.668;9.578;2023-11-22T01:52:49;3.60;99.90
14378;DHT22;7272;53.668;9.578;2023-11-22T01:55:51;3.60;99.90
14378;DHT22;7272;53.668;9.578;2023-11-22T01:58:53;3.60;99.90
14378;DHT22;7272;53.668;9.578;2023-11-22T02:01:56;3.50;99.90
14378;DHT22;7272;53.668;9.578;2023-11-22T02:04:57;3.50;99.90
14378;DHT22;7272;53.668;9.578;2023-11-22T02:07:59;3.50;99.90
14378;DHT22;7272;53.668;9.578;2023-11-22T02:11:01;3.50;99.90
14378;DHT22;7272;53.668;9.578;2023-11-22T02:14:04;3.40;99.90
14378;DHT22;7272;53.668;9.578;2023-11-22T02:17:07;3.40;99.90
14378;DHT22;7272;53.668;9.578;2023-11-22T02:20:10;3.40;99.90
14378;DHT22;7272;53.668;9.578;2023-11-22T02:23:12;3.30;99.90
14378;DHT22;7272;53.668;9.578;2023-11-22T02:26:13;3.20;99.90
14378;DHT22;7272;53.668;9.578;2023-11-22T02:29:16;3.10;99.90
14378;DHT22;7272;53.668;9.578;2023-11-22T02:32:17;3.10;99.90
14378;DHT22;7272;53.668;9.578;2023-11-22T02:35:19;3.10;99.90
14378;DHT22;7272;53.668;9.578;2023-11-22T02:38:22;3.20;99.90
14378;DHT22;7272;53.668;9.578;2023-11-22T02:41:24;3.10;99.90
14378;DHT22;7272;53.668;9.578;2023-11-22T02:44:30;3.20;99.90
14378;DHT22;7272;53.668;9.578;2023-11-22T02:47:31;3.20;99.90
14378;DHT22;7272;53.668;9.578;2023-11-22T02:50:32;3.20;99.90
14378;DHT22;7272;53.668;9.578;2023-11-22T02:53:35;3.10;99.90
14378;DHT22;7272;53.668;9.578;2023-11-22T02:56:37;3.10;99.90
14378;DHT22;7272;53.668;9.578;2023-11-22T02:59:41;3.10;99.90
14378;DHT22;7272;53.668;9.578;2023-11-22T03:02:42;3.00;99.90
14378;DHT22;7272;53.668;9.578;2023-11-22T03:05:44;3.00;99.90
14378;DHT22;7272;53.668;9.578;2023-11-22T03:08:46;3.00;99.90
14378;DHT22;7272;53.668;9.578;2023-11-22T03:11:47;3.00;99.90
14378;DHT22;7272;53.668;9.578;2023-11-22T03:14:48;2.90;99.90
14378;DHT22;7272;53.668;9.578;2023-11-22T03:17:50;2.90;99.90
14378;DHT22;7272;53.668;9.578;2023-11-22T03:20:51;2.90;99.90
14378;DHT22;7272;53.668;9.578;2023-11-22T03:23:55;2.90;99.90
14378;DHT22;7272;53.668;9.578;2023-11-22T03:26:56;2.90;99.90
14378;DHT22;7272;53.668;9.578;2023-11-22T03:30:00;2.90;99.90
14378;DHT22;7272;53.668;9.578;2023-11-22T03:33:01;2.90;99.90
14378;DHT22;7272;53.668;9.578;2023-11-22T03:36:04;2.80;99.90
14378;DHT22;7272;53.668;9.578;2023-11-22T03:39:06;2.80;99.90
14378;DHT22;7272;53.668;9.578;2023-11-22T03:42:08;2.80;99.90
14378;DHT22;7272;53.668;9.578;2023-11-22T03:45:09;2.70;99.90
14378;DHT22;7272;53.668;9.578;2023-11-22T03:48:10;2.70;99.90
14378;DHT22;7272;53.668;9.578;2023-11-22T03:51:12;2.80;99.90
14378;DHT22;7272;53.668;9.578;2023-11-22T03:54:14;2.80;99.90
14378;DHT22;7272;53.668;9.578;2023-11-22T03:57:16;2.90;99.90
14378;DHT22;7272;53.668;9.578;2023-11-22T04:00:18;2.80;99.90
14378;DHT22;7272;53.668;9.578;2023-11-22T04:03:20;2.70;99.90
14378;DHT22;7272;53.668;9.578;2023-11-22T04:06:21;2.70;99.90
14378;DHT22;7272;53.668;9.578;2023-11-22T04:09:24;2.70;99.90
14378;DHT22;7272;53.668;9.578;2023-11-22T04:12:25;2.70;99.90
14378;DHT22;7272;53.668;9.578;2023-11-22T04:15:26;2.60;99.90
14378;DHT22;7272;53.668;9.578;2023-11-22T04:18:27;2.70;99.90
14378;DHT22;7272;53.668;9.578;2023-11-22T04:21:28;2.70;99.90
14378;DHT22;7272;53.668;9.578;2023-11-22T04:24:31;2.60;99.90
14378;DHT22;7272;53.668;9.578;2023-11-22T04:27:32;2.60;99.90
14378;DHT22;7272;53.668;9.578;2023-11-22T04:30:34;2.60;99.90
14378;DHT22;7272;53.668;9.578;2023-11-22T04:33:35;2.60;99.90
14378;DHT22;7272;53.668;9.578;2023-11-22T04:36:36;2.60;99.90
14378;DHT22;7272;53.668;9.578;2023-11-22T04:39:40;2.60;99.90
14378;DHT22;7272;53.668;9.578;2023-11-22T04:42:41;2.50;99.90
14378;DHT22;7272;53.668;9.578;2023-11-22T04:45:42;2.50;99.90
14378;DHT22;7272;53.668;9.578;2023-11-22T04:48:43;2.50;99.90
14378;DHT22;7272;53.668;9.578;2023-11-22T04:51:45;2.50;99.90
14378;DHT22;7272;53.668;9.578;2023-11-22T04:54:47;2.50;99.90
14378;DHT22;7272;53.668;9.578;2023-11-22T04:57:48;2.50;99.90
14378;DHT22;7272;53.668;9.578;2023-11-22T05:00:50;2.50;99.90
14378;DHT22;7272;53.668;9.578;2023-11-22T05:03:51;2.50;99.90
14378;DHT22;7272;53.668;9.578;2023-11-22T05:06:56;2.50;99.90
14378;DHT22;7272;53.668;9.578;2023-11-22T05:09:58;2.50;99.90
14378;DHT22;7272;53.668;9.578;2023-11-22T05:12:59;2.50;99.90
14378;DHT22;7272;53.668;9.578;2023-11-22T05:16:01;2.50;99.90
14378;DHT22;7272;53.668;9.578;2023-11-22T05:19:03;2.40;99.90
14378;DHT22;7272;53.668;9.578;2023-11-22T05:22:05;2.40;99.90
14378;DHT22;7272;53.668;9.578;2023-11-22T05:25:07;2.30;99.90
14378;DHT22;7272;53.668;9.578;2023-11-22T05:28:08;2.40;99.90
14378;DHT22;7272;53.668;9.578;2023-11-22T05:31:09;2.30;99.90
14378;DHT22;7272;53.668;9.578;2023-11-22T05:34:13;2.20;99.90
14378;DHT22;7272;53.668;9.578;2023-11-22T05:37:14;2.20;99.90
14378;DHT22;7272;53.668;9.578;2023-11-22T05:40:16;2.20;99.90
14378;DHT22;7272;53.668;9.578;2023-11-22T05:43:17;2.10;99.90
14378;DHT22;7272;53.668;9.578;2023-11-22T05:46:20;2.10;99.90
14378;DHT22;7272;53.668;9.578;2023-11-22T05:49:22;2.10;99.90
14378;DHT22;7272;53.668;9.578;2023-11-22T05:52:23;2.10;99.90
14378;DHT22;7272;53.668;9.578;2023-11-22T05:55:25;2.10;99.90
14378;DHT22;7272;53.668;9.578;2023-11-22T05:58:26;2.00;99.90
14378;DHT22;7272;53.668;9.578;2023-11-22T06:01:30;2.00;99.90
14378;DHT22;7272;53.668;9.578;2023-11-22T06:04:31;2.00;99.90
14378;DHT22;7272;53.668;9.578;2023-11-22T06:07:32;2.10;99.90
14378;DHT22;7272;53.668;9.578;2023-11-22T06:10:34;2.10;99.90
14378;DHT22;7272;53.668;9.578;2023-11-22T06:13:36;2.20;99.90
14378;DHT22;7272;53.668;9.578;2023-11-22T06:16:37;2.20;99.90
14378;DHT22;7272;53.668;9.578;2023-11-22T06:19:38;2.20;99.90
14378;DHT22;7272;53.668;9.578;2023-11-22T06:22:39;2.20;99.90
14378;DHT22;7272;53.668;9.578;2023-11-22T06:25:43;2.20;99.90
14378;DHT22;7272;53.668;9.578;2023-11-22T06:28:44;2.20;99.90
14378;DHT22;7272;53.668;9.578;2023-11-22T06:31:49;2.30;99.90
14378;DHT22;7272;53.668;9.578;2023-11-22T06:34:50;2.30;99.90
14378;DHT22;7272;53.668;9.578;2023-11-22T06:37:52;2.30;99.90
14378;DHT22;7272;53.668;9.578;2023-11-22T06:40:54;2.40;99.90
14378;DHT22;7272;53.668;9.578;2023-11-22T06:43:55;2.40;99.90
14378;DHT22;7272;53.668;9.578;2023-11-22T06:46:56;2.40;99.90
14378;DHT22;7272;53.668;9.578;2023-11-22T06:49:57;2.50;99.90
14378;DHT22;7272;53.668;9.578;2023-11-22T06:52:59;2.50;99.90
14378;DHT22;7272;53.668;9.578;2023-11-22T06:56:01;2.60;99.90
14378;DHT22;7272;53.668;9.578;2023-11-22T06:59:02;2.60;99.90
14378;DHT22;7272;53.668;9.578;2023-11-22T07:02:04;2.70;99.90
14378;DHT22;7272;53.668;9.578;2023-11-22T07:05:06;2.70;99.90
14378;DHT22;7272;53.668;9.578;2023-11-22T07:08:09;2.70;99.90
14378;DHT22;7272;53.668;9.578;2023-11-22T07:11:12;2.80;99.90
14378;DHT22;7272;53.668;9.578;2023-11-22T07:14:14;2.80;99.90
14378;DHT22;7272;53.668;9.578;2023-11-22T07:17:15;2.90;99.90
14378;DHT22;7272;53.668;9.578;2023-11-22T07:20:18;3.00;99.90
14378;DHT22;7272;53.668;9.578;2023-11-22T07:23:19;3.00;99.90
14378;DHT22;7272;53.668;9.578;2023-11-22T07:26:21;3.00;99.90
14378;DHT22;7272;53.668;9.578;2023-11-22T07:29:22;3.00;99.90
14378;DHT22;7272;53.668;9.578;2023-11-22T07:32:27;3.00;99.90
14378;DHT22;7272;53.668;9.578;2023-11-22T07:35:28;3.00;99.90
14378;DHT22;7272;53.668;9.578;2023-11-22T07:38:29;3.00;99.90
14378;DHT22;7272;53.668;9.578;2023-11-22T07:41:32;3.00;99.90
14378;DHT22;7272;53.668;9.578;2023-11-22T07:44:36;3.10;99.90
14378;DHT22;7272;53.668;9.578;2023-11-22T07:47:38;3.10;99.90
14378;DHT22;7272;53.668;9.578;2023-11-22T07:50:41;3.10;99.90
14378;DHT22;7272;53.668;9.578;2023-11-22T07:53:44;3.10;99.90
14378;DHT22;7272;53.668;9.578;2023-11-22T07:56:46;3.10;99.90
14378;DHT22;7272;53.668;9.578;2023-11-22T07:59:48;3.10;99.90
14378;DHT22;7272;53.668;9.578;2023-11-22T08:02:49;3.10;99.90
14378;DHT22;7272;53.668;9.578;2023-11-22T08:05:50;3.20;99.90
14378;DHT22;7272;53.668;9.578;2023-11-22T08:08:54;3.20;99.90
14378;DHT22;7272;53.668;9.578;2023-11-22T08:11:56;3.20;99.90
14378;DHT22;7272;53.668;9.578;2023-11-22T08:14:58;3.20;99.90
14378;DHT22;7272;53.668;9.578;2023-11-22T08:17:59;3.30;99.90
14378;DHT22;7272;53.668;9.578;2023-11-22T08:21:01;3.30;99.90
14378;DHT22;7272;53.668;9.578;2023-11-22T08:24:02;3.30;99.90
14378;DHT22;7272;53.668;9.578;2023-11-22T08:27:05;3.30;99.90
14378;DHT22;7272;53.668;9.578;2023-11-22T08:30:09;3.30;99.90
14378;DHT22;7272;53.668;9.578;2023-11-22T08:33:13;3.30;99.90
14378;DHT22;7272;53.668;9.578;2023-11-22T08:36:15;3.40;99.90
14378;DHT22;7272;53.668;9.578;2023-11-22T08:39:16;3.40;99.90
14378;DHT22;7272;53.668;9.578;2023-11-22T08:42:18;3.50;99.90
14378;DHT22;7272;53.668;9.578;2023-11-22T08:45:19;3.60;99.90
14378;DHT22;7272;53.668;9.578;2023-11-22T08:48:21;3.60;99.90
14378;DHT22;7272;53.668;9.578;2023-11-22T08:51:22;3.70;99.90
14378;DHT22;7272;53.668;9.578;2023-11-22T08:54:23;3.60;99.90
14378;DHT22;7272;53.668;9.578;2023-11-22T08:57:25;3.70;99.90
14378;DHT22;7272;53.668;9.578;2023-11-22T09:00:26;3.70;99.90
14378;DHT22;7272;53.668;9.578;2023-11-22T09:03:29;3.80;99.90
14378;DHT22;7272;53.668;9.578;2023-11-22T09:06:30;3.90;99.90
14378;DHT22;7272;53.668;9.578;2023-11-22T09:09:33;3.90;99.90
14378;DHT22;7272;53.668;9.578;2023-11-22T09:12:36;4.00;99.90
14378;DHT22;7272;53.668;9.578;2023-11-22T09:15:40;4.00;99.90
14378;DHT22;7272;53.668;9.578;2023-11-22T09:18:42;4.10;99.90
14378;DHT22;7272;53.668;9.578;2023-11-22T09:21:43;4.10;99.90
14378;DHT22;7272;53.668;9.578;2023-11-22T09:24:44;4.20;99.90
14378;DHT22;7272;53.668;9.578;2023-11-22T09:27:48;4.30;99.90
14378;DHT22;7272;53.668;9.578;2023-11-22T09:30:51;4.30;99.90
14378;DHT22;7272;53.668;9.578;2023-11-22T09:33:53;4.40;99.90
14378;DHT22;7272;53.668;9.578;2023-11-22T09:36:54;4.40;99.90
14378;DHT22;7272;53.668;9.578;2023-11-22T09:39:55;4.50;99.90
14378;DHT22;7272;53.668;9.578;2023-11-22T09:42:57;4.60;99.90
14378;DHT22;7272;53.668;9.578;2023-11-22T09:45:59;4.60;99.90
14378;DHT22;7272;53.668;9.578;2023-11-22T09:49:04;4.70;99.90
14378;DHT22;7272;53.668;9.578;2023-11-22T09:52:10;4.80;99.90
14378;DHT22;7272;53.668;9.578;2023-11-22T09:55:15;4.80;99.90
14378;DHT22;7272;53.668;9.578;2023-11-22T09:58:18;4.80;99.90
14378;DHT22;7272;53.668;9.578;2023-11-22T10:01:21;4.90;99.90
14378;DHT22;7272;53.668;9.578;2023-11-22T10:04:22;4.90;99.90
14378;DHT22;7272;53.668;9.578;2023-11-22T10:07:25;4.90;99.90
14378;DHT22;7272;53.668;9.578;2023-11-22T10:10:26;5.00;99.90
14378;DHT22;7272;53.668;9.578;2023-11-22T10:13:31;5.00;99.90
14378;DHT22;7272;53.668;9.578;2023-11-22T10:16:32;5.00;99.90
14378;DHT22;7272;53.668;9.578;2023-11-22T10:19:33;5.10;99.90
14378;DHT22;7272;53.668;9.578;2023-11-22T10:22:43;5.10;99.90
14378;DHT22;7272;53.668;9.578;2023-11-22T10:25:46;5.10;99.90
14378;DHT22;7272;53.668;9.578;2023-11-22T10:28:51;5.10;99.90
14378;DHT22;7272;53.668;9.578;2023-11-22T10:31:53;5.10;99.90
14378;DHT22;7272;53.668;9.578;2023-11-22T10:34:55;5.10;99.90
14378;DHT22;7272;53.668;9.578;2023-11-22T10:37:56;5.10;99.90
14378;DHT22;7272;53.668;9.578;2023-11-22T10:40:57;5.20;99.90
14378;DHT22;7272;53.668;9.578;2023-11-22T10:44:00;5.20;99.90
14378;DHT22;7272;53.668;9.578;2023-11-22T10:47:04;5.20;99.90
14378;DHT22;7272;53.668;9.578;2023-11-22T10:50:07;5.20;99.90
14378;DHT22;7272;53.668;9.578;2023-11-22T10:53:11;5.20;99.90
14378;DHT22;7272;53.668;9.578;2023-11-22T10:56:15;5.30;99.90
14378;DHT22;7272;53.668;9.578;2023-11-22T10:59:19;5.30;99.90
14378;DHT22;7272;53.668;9.578;2023-11-22T11:02:24;5.30;99.90
14378;DHT22;7272;53.668;9.578;2023-11-22T11:05:29;5.30;99.90
14378;DHT22;7272;53.668;9.578;2023-11-22T11:08:32;5.40;99.90
14378;DHT22;7272;53.668;9.578;2023-11-22T11:11:35;5.40;99.90
14378;DHT22;7272;53.668;9.578;2023-11-22T11:14:38;5.40;99.90
14378;DHT22;7272;53.668;9.578;2023-11-22T11:17:40;5.40;99.90
14378;DHT22;7272;53.668;9.578;2023-11-22T11:20:45;5.40;99.90
14378;DHT22;7272;53.668;9.578;2023-11-22T11:23:52;5.50;99.90
14378;DHT22;7272;53.668;9.578;2023-11-22T11:26:55;5.50;99.90
14378;DHT22;7272;53.668;9.578;2023-11-22T11:29:57;5.50;99.90
14378;DHT22;7272;53.668;9.578;2023-11-22T11:32:58;5.50;99.90
14378;DHT22;7272;53.668;9.578;2023-11-22T11:36:03;5.60;99.90
14378;DHT22;7272;53.668;9.578;2023-11-22T11:39:06;5.60;99.90
14378;DHT22;7272;53.668;9.578;2023-11-22T11:42:10;5.70;99.90
14378;DHT22;7272;53.668;9.578;2023-11-22T11:45:15;5.70;99.90
14378;DHT22;7272;53.668;9.578;2023-11-22T11:48:17;5.80;99.90
14378;DHT22;7272;53.668;9.578;2023-11-22T11:51:19;5.80;99.90
14378;DHT22;7272;53.668;9.578;2023-11-22T11:54:21;5.70;99.90
14378;DHT22;7272;53.668;9.578;2023-11-22T11:57:22;5.70;99.90
14378;DHT22;7272;53.668;9.578;2023-11-22T12:00:25;5.70;99.90
14378;DHT22;7272;53.668;9.578;2023-11-22T12:03:26;5.70;99.90
14378;DHT22;7272;53.668;9.578;2023-11-22T12:06:29;5.70;99.90
14378;DHT22;7272;53.668;9.578;2023-11-22T12:09:30;5.70;99.90
14378;DHT22;7272;53.668;9.578;2023-11-22T12:12:31;5.70;99.90
14378;DHT22;7272;53.668;9.578;2023-11-22T12:15:33;5.80;99.90
14378;DHT22;7272;53.668;9.578;2023-11-22T12:18:39;5.90;99.90
14378;DHT22;7272;53.668;9.578;2023-11-22T12:21:40;5.90;99.90
14378;DHT22;7272;53.668;9.578;2023-11-22T12:24:42;5.90;99.90
14378;DHT22;7272;53.668;9.578;2023-11-22T12:27:44;5.90;99.90
14378;DHT22;7272;53.668;9.578;2023-11-22T12:30:47;5.90;99.90
14378;DHT22;7272;53.668;9.578;2023-11-22T12:33:48;5.90;99.90
14378;DHT22;7272;53.668;9.578;2023-11-22T12:36:50;5.80;99.90
14378;DHT22;7272;53.668;9.578;2023-11-22T12:39:51;5.80;99.90
14378;DHT22;7272;53.668;9.578;2023-11-22T12:42:53;5.90;99.90
14378;DHT22;7272;53.668;9.578;2023-11-22T12:46:02;5.90;99.90
14378;DHT22;7272;53.668;9.578;2023-11-22T12:49:06;5.90;99.90
14378;DHT22;7272;53.668;9.578;2023-11-22T12:52:07;5.90;99.90
14378;DHT22;7272;53.668;9.578;2023-11-22T12:55:09;5.90;99.90
14378;DHT22;7272;53.668;9.578;2023-11-22T12:58:11;5.90;99.90
14378;DHT22;7272;53.668;9.578;2023-11-22T13:01:13;5.90;99.90
14378;DHT22;7272;53.668;9.578;2023-11-22T13:04:14;5.80;99.90
14378;DHT22;7272;53.668;9.578;2023-11-22T13:07:16;5.70;99.90
14378;DHT22;7272;53.668;9.578;2023-11-22T13:13:44;5.70;99.90
14378;DHT22;7272;53.668;9.578;2023-11-22T13:16:47;5.70;99.90
14378;DHT22;7272;53.668;9.578;2023-11-22T13:19:49;5.70;99.90
14378;DHT22;7272;53.668;9.578;2023-11-22T13:22:50;5.70;99.90
14378;DHT22;7272;53.668;9.578;2023-11-22T13:25:52;5.70;99.90
14378;DHT22;7272;53.668;9.578;2023-11-22T13:28:53;5.70;99.90
14378;DHT22;7272;53.668;9.578;2023-11-22T13:31:56;5.60;99.90
14378;DHT22;7272;53.668;9.578;2023-11-22T13:34:59;5.60;99.90
14378;DHT22;7272;53.668;9.578;2023-11-22T13:38:00;5.60;99.90
14378;DHT22;7272;53.668;9.578;2023-11-22T13:41:03;5.60;99.90
14378;DHT22;7272;53.668;9.578;2023-11-22T13:44:04;5.60;99.90
14378;DHT22;7272;53.668;9.578;2023-11-22T13:47:07;5.60;99.90
14378;DHT22;7272;53.668;9.578;2023-11-22T13:50:09;5.50;99.90
14378;DHT22;7272;53.668;9.578;2023-11-22T13:53:10;5.50;99.90
14378;DHT22;7272;53.668;9.578;2023-11-22T13:56:11;5.50;99.90
14378;DHT22;7272;53.668;9.578;2023-11-22T13:59:12;5.50;99.90
14378;DHT22;7272;53.668;9.578;2023-11-22T14:02:15;5.40;99.90
14378;DHT22;7272;53.668;9.578;2023-11-22T14:05:17;5.50;99.90
14378;DHT22;7272;53.668;9.578;2023-11-22T14:08:18;5.40;99.90
14378;DHT22;7272;53.668;9.578;2023-11-22T14:11:20;5.30;99.90
14378;DHT22;7272;53.668;9.578;2023-11-22T14:14:22;5.30;99.90
14378;DHT22;7272;53.668;9.578;2023-11-22T14:17:23;5.40;99.90
14378;DHT22;7272;53.668;9.578;2023-11-22T14:20:25;5.30;99.90
14378;DHT22;7272;53.668;9.578;2023-11-22T14:23:26;5.30;99.90
14378;DHT22;7272;53.668;9.578;2023-11-22T14:26:27;5.20;99.90
14378;DHT22;7272;53.668;9.578;2023-11-22T14:29:28;5.20;99.90
14378;DHT22;7272;53.668;9.578;2023-11-22T14:32:30;5.20;99.90
14378;DHT22;7272;53.668;9.578;2023-11-22T14:35:32;5.20;99.90
14378;DHT22;7272;53.668;9.578;2023-11-22T14:38:33;5.20;99.90
14378;DHT22;7272;53.668;9.578;2023-11-22T14:41:34;5.20;99.90
14378;DHT22;7272;53.668;9.578;2023-11-22T14:44:36;5.20;99.90
14378;DHT22;7272;53.668;9.578;2023-11-22T14:47:38;5.20;99.90
14378;DHT22;7272;53.668;9.578;2023-11-22T14:50:40;5.20;99.90
14378;DHT22;7272;53.668;9.578;2023-11-22T14:53:41;5.20;99.90
14378;DHT22;7272;53.668;9.578;2023-11-22T14:56:43;5.20;99.90
14378;DHT22;7272;53.668;9.578;2023-11-22T14:59:45;5.20;99.90
14378;DHT22;7272;53.668;9.578;2023-11-22T15:02:48;5.20;99.90
14378;DHT22;7272;53.668;9.578;2023-11-22T15:05:52;5.10;99.90
14378;DHT22;7272;53.668;9.578;2023-11-22T15:08:54;5.10;99.90
14378;DHT22;7272;53.668;9.578;2023-11-22T15:11:55;5.10;99.90
14378;DHT22;7272;53.668;9.578;2023-11-22T15:14:57;5.10;99.90
14378;DHT22;7272;53.668;9.578;2023-11-22T15:18:00;5.10;99.90
14378;DHT22;7272;53.668;9.578;2023-11-22T15:21:01;5.10;99.90
14378;DHT22;7272;53.668;9.578;2023-11-22T15:24:03;5.10;99.90
14378;DHT22;7272;53.668;9.578;2023-11-22T15:27:05;5.00;99.90
14378;DHT22;7272;53.668;9.578;2023-11-22T15:30:07;5.00;99.90
14378;DHT22;7272;53.668;9.578;2023-11-22T15:33:10;5.00;99.90
14378;DHT22;7272;53.668;9.578;2023-11-22T15:36:12;5.00;99.90
14378;DHT22;7272;53.668;9.578;2023-11-22T15:39:13;5.00;99.90
14378;DHT22;7272;53.668;9.578;2023-11-22T15:42:16;5.00;99.90
14378;DHT22;7272;53.668;9.578;2023-11-22T15:45:17;5.00;99.90
14378;DHT22;7272;53.668;9.578;2023-11-22T15:48:19;5.00;99.90
14378;DHT22;7272;53.668;9.578;2023-11-22T15:51:21;5.00;99.90
14378;DHT22;7272;53.668;9.578;2023-11-22T15:54:22;4.90;99.90
14378;DHT22;7272;53.668;9.578;2023-11-22T15:57:23;4.90;99.90
14378;DHT22;7272;53.668;9.578;2023-11-22T16:00:24;5.00;99.90
14378;DHT22;7272;53.668;9.578;2023-11-22T16:03:26;4.90;99.90
14378;DHT22;7272;53.668;9.578;2023-11-22T16:06:27;4.90;99.90
14378;DHT22;7272;53.668;9.578;2023-11-22T16:09:29;4.90;99.90
14378;DHT22;7272;53.668;9.578;2023-11-22T16:12:30;4.90;99.90
14378;DHT22;7272;53.668;9.578;2023-11-22T16:15:32;5.00;99.90
14378;DHT22;7272;53.668;9.578;2023-11-22T16:18:34;4.90;99.90
14378;DHT22;7272;53.668;9.578;2023-11-22T16:21:38;4.90;99.90
14378;DHT22;7272;53.668;9.578;2023-11-22T16:24:39;4.90;99.90
14378;DHT22;7272;53.668;9.578;2023-11-22T16:27:41;4.90;99.90
14378;DHT22;7272;53.668;9.578;2023-11-22T16:30:42;4.90;99.90
14378;DHT22;7272;53.668;9.578;2023-11-22T16:33:44;4.90;99.90
14378;DHT22;7272;53.668;9.578;2023-11-22T16:36:46;4.90;99.90
14378;DHT22;7272;53.668;9.578;2023-11-22T16:39:47;4.90;99.90
14378;DHT22;7272;53.668;9.578;2023-11-22T16:42:48;4.80;99.90
14378;DHT22;7272;53.668;9.578;2023-11-22T16:45:50;4.80;99.90
14378;DHT22;7272;53.668;9.578;2023-11-22T16:48:52;4.80;99.90
14378;DHT22;7272;53.668;9.578;2023-11-22T16:51:55;4.80;99.90
14378;DHT22;7272;53.668;9.578;2023-11-22T16:54:56;4.80;99.90
14378;DHT22;7272;53.668;9.578;2023-11-22T16:57:57;4.80;99.90
14378;DHT22;7272;53.668;9.578;2023-11-22T17:00:59;4.80;99.90
14378;DHT22;7272;53.668;9.578;2023-11-22T17:04:01;4.80;99.90
14378;DHT22;7272;53.668;9.578;2023-11-22T17:07:03;4.80;99.90
14378;DHT22;7272;53.668;9.578;2023-11-22T17:10:05;4.70;99.90
14378;DHT22;7272;53.668;9.578;2023-11-22T17:13:06;4.70;99.90
14378;DHT22;7272;53.668;9.578;2023-11-22T17:16:08;4.80;99.90
14378;DHT22;7272;53.668;9.578;2023-11-22T17:19:09;4.80;99.90
14378;DHT22;7272;53.668;9.578;2023-11-22T17:22:11;4.70;99.90
14378;DHT22;7272;53.668;9.578;2023-11-22T17:25:12;4.80;99.90
14378;DHT22;7272;53.668;9.578;2023-11-22T17:28:14;4.70;99.90
14378;DHT22;7272;53.668;9.578;2023-11-22T17:31:15;4.70;99.90
14378;DHT22;7272;53.668;9.578;2023-11-22T17:34:17;4.70;99.90
14378;DHT22;7272;53.668;9.578;2023-11-22T17:37:18;4.70;99.90
14378;DHT22;7272;53.668;9.578;2023-11-22T17:40:19;4.70;99.90
14378;DHT22;7272;53.668;9.578;2023-11-22T17:43:21;4.70;99.90
14378;DHT22;7272;53.668;9.578;2023-11-22T17:46:23;4.70;99.90
14378;DHT22;7272;53.668;9.578;2023-11-22T17:49:26;4.70;99.90
14378;DHT22;7272;53.668;9.578;2023-11-22T17:52:27;4.70;99.90
14378;DHT22;7272;53.668;9.578;2023-11-22T17:55:28;4.70;99.90
14378;DHT22;7272;53.668;9.578;2023-11-22T17:58:29;4.70;99.90
14378;DHT22;7272;53.668;9.578;2023-11-22T18:01:32;4.70;99.90
14378;DHT22;7272;53.668;9.578;2023-11-22T18:04:34;4.70;99.90
14378;DHT22;7272;53.668;9.578;2023-11-22T18:07:35;4.70;99.90
14378;DHT22;7272;53.668;9.578;2023-11-22T18:10:38;4.60;99.90
14378;DHT22;7272;53.668;9.578;2023-11-22T18:13:39;4.70;99.90
14378;DHT22;7272;53.668;9.578;2023-11-22T18:16:41;4.60;99.90
14378;DHT22;7272;53.668;9.578;2023-11-22T18:19:43;4.70;99.90
14378;DHT22;7272;53.668;9.578;2023-11-22T18:22:44;4.70;99.90
14378;DHT22;7272;53.668;9.578;2023-11-22T18:25:45;4.70;99.90
14378;DHT22;7272;53.668;9.578;2023-11-22T18:28:47;4.70;99.90
14378;DHT22;7272;53.668;9.578;2023-11-22T18:31:49;4.80;99.90
14378;DHT22;7272;53.668;9.578;2023-11-22T18:34:51;4.80;99.90
14378;DHT22;7272;53.668;9.578;2023-11-22T18:37:53;4.80;99.90
14378;DHT22;7272;53.668;9.578;2023-11-22T18:40:54;4.70;99.90
14378;DHT22;7272;53.668;9.578;2023-11-22T18:43:55;4.70;99.90
14378;DHT22;7272;53.668;9.578;2023-11-22T18:46:56;4.80;99.90
14378;DHT22;7272;53.668;9.578;2023-11-22T18:49:58;4.80;99.90
14378;DHT22;7272;53.668;9.578;2023-11-22T18:53:00;4.80;99.90
14378;DHT22;7272;53.668;9.578;2023-11-22T18:56:01;4.80;99.90
14378;DHT22;7272;53.668;9.578;2023-11-22T18:59:02;4.80;99.90
14378;DHT22;7272;53.668;9.578;2023-11-22T19:02:05;4.80;99.90
14378;DHT22;7272;53.668;9.578;2023-11-22T19:05:08;4.80;99.90
14378;DHT22;7272;53.668;9.578;2023-11-22T19:08:10;4.80;99.90
14378;DHT22;7272;53.668;9.578;2023-11-22T19:11:11;4.80;99.90
14378;DHT22;7272;53.668;9.578;2023-11-22T19:14:12;4.90;99.90
14378;DHT22;7272;53.668;9.578;2023-11-22T19:17:14;4.90;99.90
14378;DHT22;7272;53.668;9.578;2023-11-22T19:20:17;4.90;99.90
14378;DHT22;7272;53.668;9.578;2023-11-22T19:23:19;4.90;99.90
14378;DHT22;7272;53.668;9.578;2023-11-22T19:26:20;4.90;99.90
14378;DHT22;7272;53.668;9.578;2023-11-22T19:29:22;5.00;99.90
14378;DHT22;7272;53.668;9.578;2023-11-22T19:32:23;5.00;99.90
14378;DHT22;7272;53.668;9.578;2023-11-22T19:35:25;5.10;99.90
14378;DHT22;7272;53.668;9.578;2023-11-22T19:38:26;5.10;99.90
14378;DHT22;7272;53.668;9.578;2023-11-22T19:41:31;5.20;99.90
14378;DHT22;7272;53.668;9.578;2023-11-22T19:44:32;5.20;99.90
14378;DHT22;7272;53.668;9.578;2023-11-22T19:47:33;5.20;99.90
14378;DHT22;7272;53.668;9.578;2023-11-22T19:50:35;5.20;99.90